CCA6117 ZBHH-ZSPD
Flight info
| Callsign | CCA6117 |
|---|---|
| Flight time | 2h 4m |
| Altitude | 41100 |
| Route | TODAM9ZD TODAM B208 CGO W129 KAMDA W128 FYG B208 HFE R343 EKIMU |
| Aircraft | A359/H-SDE2E3GHIJ3J4J5LM1ORWXY/LB1D1 |
Departure
| Time | 2026-05-08 13:32 |
|---|---|
| Airport | Hohhot Baita International Airport (ZBHH) |
Arrival
| Time | 2026-05-08 15:36 |
|---|---|
| Airport | Shanghai Pudong International Airport (ZSPD) |
| Time | Latitude | Longitude | Altitude | Speed | Heading |
|---|---|---|---|---|---|
| 2026-05-08 13:13 | 40.85235 | 111.81281 | 3540 ft | 0 kts | 342° |
| 2026-05-08 13:22 | 40.85233 | 111.81282 | 3528 ft | 3 kts | 342° |
| 2026-05-08 13:22 | 40.85209 | 111.81292 | 3541 ft | 4 kts | 342° |
| 2026-05-08 13:23 | 40.85186 | 111.81302 | 3541 ft | 4 kts | 327° |
| 2026-05-08 13:23 | 40.85173 | 111.81325 | 3541 ft | 4 kts | 265° |
| 2026-05-08 13:23 | 40.85179 | 111.81358 | 3541 ft | 3 kts | 251° |
| 2026-05-08 13:23 | 40.85182 | 111.81368 | 3541 ft | 0 kts | 252° |
| 2026-05-08 13:27 | 40.85175 | 111.81342 | 3541 ft | 18 kts | 252° |
| 2026-05-08 13:27 | 40.85116 | 111.81097 | 3541 ft | 22 kts | 251° |
| 2026-05-08 13:28 | 40.85075 | 111.81052 | 3541 ft | 15 kts | 201° |
| 2026-05-08 13:28 | 40.85057 | 111.81053 | 3541 ft | 12 kts | 171° |
| 2026-05-08 13:28 | 40.84890 | 111.81122 | 3540 ft | 16 kts | 172° |
| 2026-05-08 13:28 | 40.84829 | 111.81059 | 3540 ft | 23 kts | 249° |
| 2026-05-08 13:29 | 40.84780 | 111.80844 | 3539 ft | 25 kts | 258° |
| 2026-05-08 13:29 | 40.84780 | 111.80629 | 3540 ft | 22 kts | 270° |
| 2026-05-08 13:29 | 40.84721 | 111.80498 | 3540 ft | 16 kts | 223° |
| 2026-05-08 13:29 | 40.84657 | 111.80384 | 3539 ft | 12 kts | 216° |
| 2026-05-08 13:30 | 40.84604 | 111.80384 | 3538 ft | 0 kts | 167° |
| 2026-05-08 13:30 | 40.84560 | 111.80398 | 3536 ft | 17 kts | 165° |
| 2026-05-08 13:31 | 40.84512 | 111.80490 | 3534 ft | 11 kts | 88° |
| 2026-05-08 13:31 | 40.84550 | 111.80663 | 3534 ft | 45 kts | 72° |
| 2026-05-08 13:31 | 40.84710 | 111.81349 | 3533 ft | 109 kts | 73° |
| 2026-05-08 13:31 | 40.84994 | 111.82551 | 3533 ft | 163 kts | 72° |
| 2026-05-08 13:32 | 40.85350 | 111.83984 | 4117 ft | 164 kts | 73° |
| 2026-05-08 13:32 | 40.85685 | 111.85426 | 4653 ft | 169 kts | 75° |
| 2026-05-08 13:32 | 40.86051 | 111.87028 | 4908 ft | 192 kts | 73° |
| 2026-05-08 13:32 | 40.86467 | 111.88823 | 5125 ft | 216 kts | 73° |
| 2026-05-08 13:33 | 40.86933 | 111.90817 | 5344 ft | 238 kts | 73° |
| 2026-05-08 13:33 | 40.87433 | 111.92948 | 5543 ft | 254 kts | 72° |
| 2026-05-08 13:33 | 40.87980 | 111.95268 | 5711 ft | 275 kts | 72° |
| 2026-05-08 13:33 | 40.88566 | 111.97758 | 6091 ft | 288 kts | 73° |
| 2026-05-08 13:34 | 40.89160 | 112.00289 | 6648 ft | 292 kts | 73° |
| 2026-05-08 13:34 | 40.89760 | 112.02915 | 6989 ft | 303 kts | 75° |
| 2026-05-08 13:34 | 40.89962 | 112.05678 | 7513 ft | 305 kts | 98° |
| 2026-05-08 13:34 | 40.89273 | 112.08290 | 8023 ft | 303 kts | 127° |
| 2026-05-08 13:35 | 40.87773 | 112.10190 | 8565 ft | 296 kts | 155° |
| 2026-05-08 13:35 | 40.85852 | 112.11025 | 9132 ft | 289 kts | 178° |
| 2026-05-08 13:35 | 40.83842 | 112.11222 | 9691 ft | 291 kts | 183° |
| 2026-05-08 13:35 | 40.81806 | 112.11326 | 10236 ft | 295 kts | 183° |
| 2026-05-08 13:36 | 40.79730 | 112.11436 | 10695 ft | 301 kts | 182° |
| 2026-05-08 13:36 | 40.77620 | 112.11563 | 11203 ft | 305 kts | 182° |
| 2026-05-08 13:36 | 40.75489 | 112.11700 | 11741 ft | 309 kts | 182° |
| 2026-05-08 13:36 | 40.73357 | 112.11847 | 12273 ft | 313 kts | 182° |
| 2026-05-08 13:37 | 40.71141 | 112.11991 | 12575 ft | 326 kts | 182° |
| 2026-05-08 13:37 | 40.69593 | 112.12090 | 12724 ft | 335 kts | 181° |
| 2026-05-08 13:37 | 40.66423 | 112.12299 | 13007 ft | 353 kts | 181° |
| 2026-05-08 13:37 | 40.63927 | 112.12467 | 13185 ft | 365 kts | 181° |
| 2026-05-08 13:38 | 40.61363 | 112.12642 | 13505 ft | 372 kts | 181° |
| 2026-05-08 13:38 | 40.59608 | 112.12763 | 13761 ft | 376 kts | 181° |
| 2026-05-08 13:38 | 40.56979 | 112.12943 | 14138 ft | 380 kts | 181° |
| 2026-05-08 13:38 | 40.54341 | 112.13105 | 14665 ft | 377 kts | 182° |
| 2026-05-08 13:39 | 40.51692 | 112.13269 | 14967 ft | 386 kts | 181° |
| 2026-05-08 13:39 | 40.48991 | 112.13462 | 15282 ft | 391 kts | 181° |
| 2026-05-08 13:39 | 40.46306 | 112.13655 | 15739 ft | 392 kts | 181° |
| 2026-05-08 13:39 | 40.43574 | 112.13847 | 16179 ft | 394 kts | 181° |
| 2026-05-08 13:40 | 40.40825 | 112.14037 | 16633 ft | 397 kts | 181° |
| 2026-05-08 13:40 | 40.38063 | 112.14225 | 17083 ft | 399 kts | 181° |
| 2026-05-08 13:40 | 40.35283 | 112.14412 | 17523 ft | 401 kts | 181° |
| 2026-05-08 13:40 | 40.32487 | 112.14601 | 17956 ft | 404 kts | 182° |
| 2026-05-08 13:41 | 40.29668 | 112.14791 | 18355 ft | 407 kts | 182° |
| 2026-05-08 13:41 | 40.26836 | 112.14982 | 18729 ft | 409 kts | 181° |
| 2026-05-08 13:41 | 40.23975 | 112.15174 | 19082 ft | 412 kts | 181° |
| 2026-05-08 13:41 | 40.21100 | 112.15372 | 19402 ft | 417 kts | 181° |
| 2026-05-08 13:42 | 40.18185 | 112.15569 | 19672 ft | 421 kts | 181° |
| 2026-05-08 13:42 | 40.15248 | 112.15764 | 20068 ft | 423 kts | 181° |
| 2026-05-08 13:42 | 40.12306 | 112.15962 | 20443 ft | 425 kts | 180° |
| 2026-05-08 13:42 | 40.09343 | 112.16160 | 20799 ft | 428 kts | 180° |
| 2026-05-08 13:43 | 40.06360 | 112.16361 | 21150 ft | 430 kts | 180° |
| 2026-05-08 13:43 | 40.03364 | 112.16560 | 21475 ft | 433 kts | 180° |
| 2026-05-08 13:43 | 40.00375 | 112.16754 | 21792 ft | 436 kts | 180° |
| 2026-05-08 13:43 | 39.97372 | 112.16949 | 22106 ft | 439 kts | 180° |
| 2026-05-08 13:44 | 39.94310 | 112.17148 | 22476 ft | 441 kts | 180° |
| 2026-05-08 13:44 | 39.91188 | 112.17352 | 22802 ft | 444 kts | 179° |
| 2026-05-08 13:44 | 39.88097 | 112.17554 | 23113 ft | 446 kts | 179° |
| 2026-05-08 13:44 | 39.85036 | 112.17754 | 23424 ft | 449 kts | 179° |
| 2026-05-08 13:45 | 39.81915 | 112.17958 | 23730 ft | 451 kts | 179° |
| 2026-05-08 13:45 | 39.78777 | 112.18162 | 24029 ft | 452 kts | 179° |
| 2026-05-08 13:45 | 39.75621 | 112.18367 | 24351 ft | 453 kts | 179° |
| 2026-05-08 13:45 | 39.72465 | 112.18573 | 24632 ft | 455 kts | 179° |
| 2026-05-08 13:46 | 39.69333 | 112.18776 | 24919 ft | 457 kts | 179° |
| 2026-05-08 13:46 | 39.66144 | 112.18984 | 25226 ft | 458 kts | 180° |
| 2026-05-08 13:46 | 39.62952 | 112.19191 | 25518 ft | 460 kts | 180° |
| 2026-05-08 13:46 | 39.59750 | 112.19398 | 25806 ft | 462 kts | 180° |
| 2026-05-08 13:47 | 39.56539 | 112.19606 | 26174 ft | 461 kts | 180° |
| 2026-05-08 13:47 | 39.53338 | 112.19814 | 26533 ft | 462 kts | 180° |
| 2026-05-08 13:47 | 39.50123 | 112.20050 | 26846 ft | 465 kts | 178° |
| 2026-05-08 13:47 | 39.46892 | 112.20587 | 27189 ft | 469 kts | 174° |
| 2026-05-08 13:48 | 39.43664 | 112.21305 | 27527 ft | 471 kts | 172° |
| 2026-05-08 13:48 | 39.40428 | 112.22109 | 27885 ft | 474 kts | 172° |
| 2026-05-08 13:48 | 39.37186 | 112.22944 | 28236 ft | 476 kts | 172° |
| 2026-05-08 13:48 | 39.33933 | 112.23782 | 28621 ft | 478 kts | 172° |
| 2026-05-08 13:49 | 39.30664 | 112.24616 | 28995 ft | 480 kts | 172° |
| 2026-05-08 13:49 | 39.27377 | 112.25440 | 29343 ft | 482 kts | 172° |
| 2026-05-08 13:49 | 39.24151 | 112.26240 | 29730 ft | 484 kts | 172° |
| 2026-05-08 13:49 | 39.20788 | 112.27065 | 30105 ft | 486 kts | 173° |
| 2026-05-08 13:50 | 39.17455 | 112.27878 | 30409 ft | 489 kts | 173° |
| 2026-05-08 13:50 | 39.14145 | 112.28684 | 30657 ft | 493 kts | 173° |
| 2026-05-08 13:50 | 39.10757 | 112.29506 | 30847 ft | 498 kts | 173° |
| 2026-05-08 13:50 | 39.07342 | 112.30336 | 31147 ft | 501 kts | 173° |
| 2026-05-08 13:51 | 39.03911 | 112.31171 | 31474 ft | 502 kts | 173° |
| 2026-05-08 13:51 | 39.00472 | 112.32008 | 31764 ft | 505 kts | 174° |
| 2026-05-08 13:51 | 38.97017 | 112.32849 | 32038 ft | 507 kts | 174° |
| 2026-05-08 13:51 | 38.93538 | 112.33693 | 32307 ft | 509 kts | 174° |
| 2026-05-08 13:52 | 38.90051 | 112.34537 | 32573 ft | 511 kts | 174° |
| 2026-05-08 13:52 | 38.86549 | 112.35385 | 32795 ft | 514 kts | 174° |
| 2026-05-08 13:52 | 38.83028 | 112.36239 | 33120 ft | 514 kts | 174° |
| 2026-05-08 13:52 | 38.79520 | 112.37090 | 33527 ft | 513 kts | 174° |
| 2026-05-08 13:53 | 38.76018 | 112.37939 | 33943 ft | 512 kts | 174° |
| 2026-05-08 13:53 | 38.72519 | 112.38787 | 34239 ft | 512 kts | 174° |
| 2026-05-08 13:53 | 38.69023 | 112.39636 | 34529 ft | 511 kts | 175° |
| 2026-05-08 13:53 | 38.65522 | 112.40481 | 34818 ft | 511 kts | 175° |
| 2026-05-08 13:54 | 38.62019 | 112.41324 | 35105 ft | 511 kts | 175° |
| 2026-05-08 13:54 | 38.58524 | 112.42162 | 35392 ft | 511 kts | 175° |
| 2026-05-08 13:54 | 38.55027 | 112.43001 | 35706 ft | 511 kts | 176° |
| 2026-05-08 13:54 | 38.51533 | 112.43837 | 35995 ft | 511 kts | 176° |
| 2026-05-08 13:55 | 38.48042 | 112.44672 | 36283 ft | 511 kts | 176° |
| 2026-05-08 13:55 | 38.44541 | 112.45511 | 36503 ft | 512 kts | 176° |
| 2026-05-08 13:55 | 38.37523 | 112.47180 | 36988 ft | 513 kts | 177° |
| 2026-05-08 13:56 | 38.34011 | 112.48006 | 37280 ft | 513 kts | 177° |
| 2026-05-08 13:56 | 38.30496 | 112.48832 | 37567 ft | 513 kts | 177° |
| 2026-05-08 13:56 | 38.26984 | 112.49658 | 37851 ft | 513 kts | 177° |
| 2026-05-08 13:56 | 38.23470 | 112.50484 | 38107 ft | 513 kts | 177° |
| 2026-05-08 13:57 | 38.19976 | 112.51307 | 38474 ft | 511 kts | 177° |
| 2026-05-08 13:57 | 38.16478 | 112.52130 | 38738 ft | 511 kts | 177° |
| 2026-05-08 13:57 | 38.12985 | 112.52947 | 38904 ft | 511 kts | 178° |
| 2026-05-08 13:57 | 38.09487 | 112.53762 | 39101 ft | 511 kts | 177° |
| 2026-05-08 13:58 | 38.05987 | 112.54582 | 39322 ft | 511 kts | 177° |
| 2026-05-08 13:58 | 38.02497 | 112.55401 | 39519 ft | 510 kts | 177° |
| 2026-05-08 13:58 | 37.99009 | 112.56220 | 39691 ft | 510 kts | 178° |
| 2026-05-08 13:58 | 37.95520 | 112.57038 | 39910 ft | 509 kts | 178° |
| 2026-05-08 13:59 | 37.92031 | 112.57854 | 40090 ft | 509 kts | 177° |
| 2026-05-08 13:59 | 37.88552 | 112.58666 | 40274 ft | 509 kts | 177° |
| 2026-05-08 13:59 | 37.85065 | 112.59485 | 40447 ft | 509 kts | 177° |
| 2026-05-08 13:59 | 37.81627 | 112.60301 | 40611 ft | 509 kts | 177° |
| 2026-05-08 14:00 | 37.78149 | 112.61130 | 40728 ft | 509 kts | 177° |
| 2026-05-08 14:00 | 37.74670 | 112.61959 | 40909 ft | 508 kts | 177° |
| 2026-05-08 14:00 | 37.71201 | 112.62902 | 41057 ft | 512 kts | 174° |
| 2026-05-08 14:00 | 37.67741 | 112.64034 | 41164 ft | 514 kts | 172° |
| 2026-05-08 14:01 | 37.64293 | 112.65246 | 41176 ft | 515 kts | 172° |
| 2026-05-08 14:01 | 37.57398 | 112.67702 | 41171 ft | 514 kts | 172° |
| 2026-05-08 14:02 | 37.50505 | 112.70070 | 41169 ft | 514 kts | 173° |
| 2026-05-08 14:02 | 37.43584 | 112.72298 | 41180 ft | 512 kts | 175° |
| 2026-05-08 14:03 | 37.36672 | 112.74479 | 41185 ft | 513 kts | 175° |
| 2026-05-08 14:03 | 37.29757 | 112.76731 | 41184 ft | 513 kts | 175° |
| 2026-05-08 14:04 | 37.22860 | 112.79017 | 41190 ft | 513 kts | 175° |
| 2026-05-08 14:04 | 37.15958 | 112.81309 | 41205 ft | 513 kts | 175° |
| 2026-05-08 14:05 | 37.09056 | 112.83595 | 41209 ft | 513 kts | 175° |
| 2026-05-08 14:05 | 37.02201 | 112.85861 | 41207 ft | 513 kts | 175° |
| 2026-05-08 14:06 | 36.95311 | 112.88136 | 41208 ft | 512 kts | 175° |
| 2026-05-08 14:06 | 36.88407 | 112.90410 | 41212 ft | 512 kts | 175° |
| 2026-05-08 14:07 | 36.81516 | 112.92678 | 41209 ft | 512 kts | 175° |
| 2026-05-08 14:07 | 36.74642 | 112.94936 | 41217 ft | 511 kts | 175° |
| 2026-05-08 14:08 | 36.67771 | 112.97187 | 41211 ft | 510 kts | 175° |
| 2026-05-08 14:08 | 36.60943 | 112.99413 | 41226 ft | 510 kts | 175° |
| 2026-05-08 14:09 | 36.54080 | 113.01658 | 41218 ft | 510 kts | 175° |
| 2026-05-08 14:09 | 36.47205 | 113.03901 | 41230 ft | 510 kts | 175° |
| 2026-05-08 14:10 | 36.40333 | 113.06138 | 41221 ft | 511 kts | 175° |
| 2026-05-08 14:10 | 36.33460 | 113.08371 | 41216 ft | 510 kts | 175° |
| 2026-05-08 14:11 | 36.26605 | 113.10594 | 41230 ft | 509 kts | 175° |
| 2026-05-08 14:11 | 36.19800 | 113.13316 | 41233 ft | 516 kts | 171° |
| 2026-05-08 14:12 | 36.13040 | 113.16325 | 41238 ft | 516 kts | 170° |
| 2026-05-08 14:12 | 36.06298 | 113.19370 | 41229 ft | 516 kts | 170° |
| 2026-05-08 14:13 | 35.99559 | 113.22406 | 41244 ft | 515 kts | 170° |
| 2026-05-08 14:13 | 35.92828 | 113.25420 | 41247 ft | 514 kts | 170° |
| 2026-05-08 14:14 | 35.86141 | 113.28402 | 41245 ft | 514 kts | 170° |
| 2026-05-08 14:14 | 35.79404 | 113.31413 | 41245 ft | 514 kts | 171° |
| 2026-05-08 14:15 | 35.72672 | 113.34418 | 41251 ft | 514 kts | 170° |
| 2026-05-08 14:15 | 35.65952 | 113.37421 | 41243 ft | 514 kts | 170° |
| 2026-05-08 14:16 | 35.59231 | 113.40413 | 41203 ft | 514 kts | 170° |
| 2026-05-08 14:16 | 35.52508 | 113.43393 | 41223 ft | 513 kts | 170° |
| 2026-05-08 14:17 | 35.45789 | 113.46368 | 41224 ft | 513 kts | 171° |
| 2026-05-08 14:17 | 35.39081 | 113.49347 | 41222 ft | 513 kts | 170° |
| 2026-05-08 14:18 | 35.32376 | 113.52334 | 41204 ft | 513 kts | 170° |
| 2026-05-08 14:18 | 35.25665 | 113.55318 | 41219 ft | 513 kts | 170° |
| 2026-05-08 14:19 | 35.18957 | 113.58293 | 41213 ft | 513 kts | 170° |
| 2026-05-08 14:19 | 35.12290 | 113.61244 | 41208 ft | 513 kts | 170° |
| 2026-05-08 14:20 | 35.05585 | 113.64208 | 41197 ft | 513 kts | 171° |
| 2026-05-08 14:20 | 34.98873 | 113.67168 | 41211 ft | 513 kts | 171° |
| 2026-05-08 14:21 | 34.92161 | 113.70124 | 41213 ft | 513 kts | 171° |
| 2026-05-08 14:21 | 34.85494 | 113.73054 | 41215 ft | 513 kts | 170° |
| 2026-05-08 14:22 | 34.78774 | 113.75508 | 41216 ft | 504 kts | 176° |
| 2026-05-08 14:22 | 34.71965 | 113.77594 | 41235 ft | 505 kts | 176° |
| 2026-05-08 14:23 | 34.65151 | 113.79729 | 41253 ft | 506 kts | 176° |
| 2026-05-08 14:23 | 34.58346 | 113.81945 | 41255 ft | 507 kts | 175° |
| 2026-05-08 14:24 | 34.51541 | 113.84192 | 41257 ft | 507 kts | 175° |
| 2026-05-08 14:24 | 34.45881 | 113.86027 | 41256 ft | 506 kts | 176° |
| 2026-05-08 14:25 | 34.39071 | 113.88168 | 41226 ft | 506 kts | 176° |
| 2026-05-08 14:25 | 34.32261 | 113.90301 | 41223 ft | 506 kts | 176° |
| 2026-05-08 14:26 | 34.25447 | 113.92443 | 41228 ft | 506 kts | 176° |
| 2026-05-08 14:26 | 34.18619 | 113.94591 | 41229 ft | 507 kts | 176° |
| 2026-05-08 14:27 | 34.11789 | 113.96738 | 41229 ft | 507 kts | 176° |
| 2026-05-08 14:27 | 34.04965 | 113.98880 | 41231 ft | 506 kts | 176° |
| 2026-05-08 14:28 | 33.98138 | 114.01018 | 41233 ft | 506 kts | 176° |
| 2026-05-08 14:28 | 33.91315 | 114.03151 | 41233 ft | 507 kts | 176° |
| 2026-05-08 14:29 | 33.84538 | 114.05266 | 41232 ft | 507 kts | 176° |
| 2026-05-08 14:29 | 33.77714 | 114.07393 | 41218 ft | 507 kts | 177° |
| 2026-05-08 14:30 | 33.70878 | 114.09519 | 41239 ft | 507 kts | 177° |
| 2026-05-08 14:30 | 33.64045 | 114.11641 | 41229 ft | 508 kts | 176° |
| 2026-05-08 14:31 | 33.57203 | 114.13764 | 41236 ft | 508 kts | 176° |
| 2026-05-08 14:31 | 33.50364 | 114.15882 | 41230 ft | 508 kts | 177° |
| 2026-05-08 14:32 | 33.43562 | 114.18446 | 41234 ft | 525 kts | 166° |
| 2026-05-08 14:32 | 33.40328 | 114.20587 | 41237 ft | 540 kts | 155° |
| 2026-05-08 14:32 | 33.37379 | 114.23455 | 41240 ft | 554 kts | 143° |
| 2026-05-08 14:32 | 33.34881 | 114.27017 | 41239 ft | 566 kts | 130° |
| 2026-05-08 14:33 | 33.32981 | 114.31175 | 41255 ft | 573 kts | 116° |
| 2026-05-08 14:33 | 33.31497 | 114.35589 | 41240 ft | 573 kts | 114° |
| 2026-05-08 14:33 | 33.28811 | 114.44572 | 41240 ft | 575 kts | 112° |
| 2026-05-08 14:34 | 33.26138 | 114.53588 | 41243 ft | 576 kts | 113° |
| 2026-05-08 14:34 | 33.23411 | 114.62521 | 41243 ft | 575 kts | 113° |
| 2026-05-08 14:35 | 33.20622 | 114.71468 | 41246 ft | 575 kts | 114° |
| 2026-05-08 14:35 | 33.17813 | 114.80410 | 41246 ft | 575 kts | 114° |
| 2026-05-08 14:36 | 33.15023 | 114.89225 | 41246 ft | 575 kts | 114° |
| 2026-05-08 14:36 | 33.12151 | 114.98290 | 41246 ft | 577 kts | 114° |
| 2026-05-08 14:37 | 33.09323 | 115.07200 | 41249 ft | 578 kts | 114° |
| 2026-05-08 14:37 | 33.06469 | 115.16170 | 41248 ft | 579 kts | 114° |
| 2026-05-08 14:38 | 33.03606 | 115.25144 | 41249 ft | 579 kts | 114° |
| 2026-05-08 14:38 | 33.00738 | 115.34109 | 41241 ft | 579 kts | 114° |
| 2026-05-08 14:39 | 32.97859 | 115.43080 | 41251 ft | 580 kts | 114° |
| 2026-05-08 14:39 | 32.95001 | 115.52074 | 41253 ft | 581 kts | 114° |
| 2026-05-08 14:40 | 32.92184 | 115.61075 | 41254 ft | 581 kts | 114° |
| 2026-05-08 14:40 | 32.89302 | 115.70048 | 41247 ft | 578 kts | 119° |
| 2026-05-08 14:41 | 32.87379 | 115.74217 | 41256 ft | 570 kts | 130° |
| 2026-05-08 14:41 | 32.85044 | 115.77989 | 41252 ft | 565 kts | 134° |
| 2026-05-08 14:41 | 32.80086 | 115.85219 | 41253 ft | 563 kts | 137° |
| 2026-05-08 14:42 | 32.75013 | 115.92310 | 41254 ft | 563 kts | 137° |
| 2026-05-08 14:42 | 32.69940 | 115.99404 | 41257 ft | 564 kts | 137° |
| 2026-05-08 14:43 | 32.64873 | 116.06530 | 41217 ft | 565 kts | 137° |
| 2026-05-08 14:43 | 32.59806 | 116.13665 | 41262 ft | 567 kts | 137° |
| 2026-05-08 14:44 | 32.54761 | 116.20780 | 41256 ft | 568 kts | 136° |
| 2026-05-08 14:44 | 32.49766 | 116.28036 | 41258 ft | 568 kts | 135° |
| 2026-05-08 14:45 | 32.44791 | 116.35321 | 41259 ft | 569 kts | 136° |
| 2026-05-08 14:45 | 32.39803 | 116.42582 | 41262 ft | 569 kts | 136° |
| 2026-05-08 14:46 | 32.34801 | 116.49822 | 41269 ft | 568 kts | 136° |
| 2026-05-08 14:46 | 32.29789 | 116.57057 | 41242 ft | 568 kts | 136° |
| 2026-05-08 14:47 | 32.24772 | 116.64285 | 41263 ft | 570 kts | 136° |
| 2026-05-08 14:47 | 32.19733 | 116.71531 | 41270 ft | 571 kts | 136° |
| 2026-05-08 14:48 | 32.14663 | 116.78735 | 41276 ft | 570 kts | 137° |
| 2026-05-08 14:48 | 32.09517 | 116.85850 | 41281 ft | 569 kts | 137° |
| 2026-05-08 14:49 | 32.04372 | 116.92946 | 41287 ft | 570 kts | 137° |
| 2026-05-08 14:49 | 31.99225 | 117.00059 | 41287 ft | 570 kts | 137° |
| 2026-05-08 14:50 | 31.94117 | 117.07134 | 41283 ft | 571 kts | 137° |
| 2026-05-08 14:50 | 31.88985 | 117.14262 | 41281 ft | 571 kts | 137° |
| 2026-05-08 14:51 | 31.83832 | 117.21407 | 41270 ft | 572 kts | 137° |
| 2026-05-08 14:51 | 31.79188 | 117.29075 | 41271 ft | 585 kts | 121° |
| 2026-05-08 14:52 | 31.77693 | 117.33552 | 41271 ft | 591 kts | 107° |
| 2026-05-08 14:52 | 31.76447 | 117.43133 | 41269 ft | 594 kts | 95° |
| 2026-05-08 14:53 | 31.75810 | 117.52826 | 41266 ft | 596 kts | 94° |
| 2026-05-08 14:53 | 31.75240 | 117.62469 | 41278 ft | 596 kts | 94° |
| 2026-05-08 14:54 | 31.74597 | 117.72178 | 41266 ft | 596 kts | 94° |
| 2026-05-08 14:54 | 31.73906 | 117.81872 | 41278 ft | 596 kts | 95° |
| 2026-05-08 14:55 | 31.73198 | 117.91566 | 41279 ft | 595 kts | 95° |
| 2026-05-08 14:55 | 31.72487 | 118.01259 | 41277 ft | 595 kts | 95° |
| 2026-05-08 14:56 | 31.71773 | 118.10934 | 41269 ft | 594 kts | 95° |
| 2026-05-08 14:56 | 31.71089 | 118.20607 | 41273 ft | 595 kts | 94° |
| 2026-05-08 14:57 | 31.70421 | 118.30299 | 41271 ft | 595 kts | 94° |
| 2026-05-08 14:57 | 31.69745 | 118.39967 | 41269 ft | 595 kts | 94° |
| 2026-05-08 14:58 | 31.69055 | 118.49646 | 41279 ft | 595 kts | 95° |
| 2026-05-08 14:58 | 31.68355 | 118.59322 | 41290 ft | 595 kts | 95° |
| 2026-05-08 14:59 | 31.67654 | 118.68943 | 41295 ft | 595 kts | 95° |
| 2026-05-08 14:59 | 31.66575 | 118.83468 | 41310 ft | 595 kts | 95° |
| 2026-05-08 15:00 | 31.65851 | 118.93148 | 41310 ft | 596 kts | 95° |
| 2026-05-08 15:00 | 31.65123 | 119.02835 | 41301 ft | 596 kts | 95° |
| 2026-05-08 15:01 | 31.64500 | 119.12536 | 41280 ft | 596 kts | 92° |
| 2026-05-08 15:01 | 31.64071 | 119.22249 | 41281 ft | 596 kts | 92° |
| 2026-05-08 15:02 | 31.63690 | 119.31966 | 41284 ft | 596 kts | 92° |
| 2026-05-08 15:02 | 31.63273 | 119.41685 | 41284 ft | 596 kts | 92° |
| 2026-05-08 15:03 | 31.62817 | 119.51386 | 41283 ft | 595 kts | 92° |
| 2026-05-08 15:03 | 31.62341 | 119.61088 | 41289 ft | 596 kts | 92° |
| 2026-05-08 15:04 | 31.61867 | 119.70730 | 41289 ft | 596 kts | 92° |
| 2026-05-08 15:04 | 31.61418 | 119.80448 | 41292 ft | 596 kts | 92° |
| 2026-05-08 15:05 | 31.60975 | 119.90162 | 41295 ft | 596 kts | 92° |
| 2026-05-08 15:05 | 31.60520 | 119.99870 | 41300 ft | 596 kts | 92° |
| 2026-05-08 15:06 | 31.60054 | 120.09577 | 41305 ft | 596 kts | 92° |
| 2026-05-08 15:06 | 31.59818 | 120.14418 | 41037 ft | 592 kts | 92° |
| 2026-05-08 15:06 | 31.59581 | 120.19242 | 40281 ft | 594 kts | 92° |
| 2026-05-08 15:07 | 31.59342 | 120.24101 | 39472 ft | 598 kts | 92° |
| 2026-05-08 15:07 | 31.59087 | 120.28977 | 38676 ft | 601 kts | 94° |
| 2026-05-08 15:07 | 31.58300 | 120.33791 | 37795 ft | 599 kts | 109° |
| 2026-05-08 15:07 | 31.57050 | 120.38420 | 37133 ft | 594 kts | 112° |
| 2026-05-08 15:08 | 31.55714 | 120.42990 | 36477 ft | 590 kts | 113° |
| 2026-05-08 15:08 | 31.54826 | 120.45989 | 36041 ft | 587 kts | 113° |
| 2026-05-08 15:08 | 31.53055 | 120.51952 | 35204 ft | 581 kts | 114° |
| 2026-05-08 15:08 | 31.51732 | 120.56410 | 34565 ft | 577 kts | 114° |
| 2026-05-08 15:09 | 31.50418 | 120.60836 | 33883 ft | 573 kts | 114° |
| 2026-05-08 15:09 | 31.49110 | 120.65236 | 33036 ft | 571 kts | 114° |
| 2026-05-08 15:09 | 31.47800 | 120.69633 | 32099 ft | 572 kts | 114° |
| 2026-05-08 15:09 | 31.46485 | 120.74042 | 31162 ft | 574 kts | 113° |
| 2026-05-08 15:10 | 31.45169 | 120.78453 | 30221 ft | 575 kts | 113° |
| 2026-05-08 15:10 | 31.43837 | 120.82869 | 29202 ft | 574 kts | 114° |
| 2026-05-08 15:10 | 31.42474 | 120.87242 | 28367 ft | 570 kts | 113° |
| 2026-05-08 15:10 | 31.41117 | 120.91577 | 27623 ft | 565 kts | 113° |
| 2026-05-08 15:11 | 31.39512 | 120.95722 | 26905 ft | 553 kts | 125° |
| 2026-05-08 15:11 | 31.37271 | 120.99314 | 26208 ft | 541 kts | 134° |
| 2026-05-08 15:11 | 31.34844 | 121.02652 | 25511 ft | 535 kts | 135° |
| 2026-05-08 15:11 | 31.32453 | 121.05927 | 24861 ft | 530 kts | 134° |
| 2026-05-08 15:12 | 31.30078 | 121.09218 | 24202 ft | 525 kts | 134° |
| 2026-05-08 15:12 | 31.27742 | 121.12482 | 23511 ft | 520 kts | 133° |
| 2026-05-08 15:12 | 31.25440 | 121.15713 | 22829 ft | 513 kts | 133° |
| 2026-05-08 15:12 | 31.23182 | 121.18892 | 22184 ft | 502 kts | 132° |
| 2026-05-08 15:13 | 31.21004 | 121.21962 | 21077 ft | 486 kts | 132° |
| 2026-05-08 15:13 | 31.18897 | 121.24928 | 19821 ft | 476 kts | 131° |
| 2026-05-08 15:13 | 31.16812 | 121.27862 | 18692 ft | 464 kts | 130° |
| 2026-05-08 15:13 | 31.14775 | 121.30727 | 17424 ft | 451 kts | 130° |
| 2026-05-08 15:14 | 31.12886 | 121.33595 | 16049 ft | 441 kts | 122° |
| 2026-05-08 15:14 | 31.11662 | 121.36832 | 14779 ft | 432 kts | 106° |
| 2026-05-08 15:14 | 31.10907 | 121.40088 | 14176 ft | 407 kts | 103° |
| 2026-05-08 15:14 | 31.10222 | 121.43187 | 13730 ft | 381 kts | 104° |
| 2026-05-08 15:15 | 31.09574 | 121.46081 | 13314 ft | 359 kts | 104° |
| 2026-05-08 15:15 | 31.08948 | 121.48853 | 13078 ft | 347 kts | 104° |
| 2026-05-08 15:15 | 31.08347 | 121.51492 | 12884 ft | 334 kts | 104° |
| 2026-05-08 15:15 | 31.07757 | 121.54071 | 12687 ft | 323 kts | 104° |
| 2026-05-08 15:16 | 31.07373 | 121.55741 | 12561 ft | 315 kts | 104° |
| 2026-05-08 15:16 | 31.06815 | 121.58165 | 12378 ft | 305 kts | 104° |
| 2026-05-08 15:16 | 31.06275 | 121.60509 | 12213 ft | 294 kts | 104° |
| 2026-05-08 15:16 | 31.05754 | 121.62766 | 12075 ft | 283 kts | 104° |
| 2026-05-08 15:17 | 31.05253 | 121.64934 | 11929 ft | 272 kts | 104° |
| 2026-05-08 15:17 | 31.04769 | 121.67025 | 11810 ft | 261 kts | 104° |
| 2026-05-08 15:17 | 31.04311 | 121.69031 | 11679 ft | 251 kts | 103° |
| 2026-05-08 15:17 | 31.04120 | 121.71000 | 11543 ft | 240 kts | 85° |
| 2026-05-08 15:18 | 31.04425 | 121.72818 | 11388 ft | 230 kts | 72° |
| 2026-05-08 15:18 | 31.04921 | 121.74624 | 11122 ft | 227 kts | 70° |
| 2026-05-08 15:18 | 31.05419 | 121.76365 | 10857 ft | 225 kts | 70° |
| 2026-05-08 15:18 | 31.05910 | 121.78090 | 10577 ft | 223 kts | 71° |
| 2026-05-08 15:19 | 31.06394 | 121.79804 | 10323 ft | 222 kts | 71° |
| 2026-05-08 15:19 | 31.06872 | 121.81513 | 10080 ft | 221 kts | 70° |
| 2026-05-08 15:19 | 31.07348 | 121.83213 | 9802 ft | 220 kts | 70° |
| 2026-05-08 15:19 | 31.07819 | 121.84899 | 9573 ft | 218 kts | 71° |
| 2026-05-08 15:20 | 31.08286 | 121.86573 | 9366 ft | 216 kts | 71° |
| 2026-05-08 15:20 | 31.08748 | 121.88234 | 9190 ft | 214 kts | 70° |
| 2026-05-08 15:20 | 31.09207 | 121.89883 | 9068 ft | 213 kts | 71° |
| 2026-05-08 15:20 | 31.09665 | 121.91526 | 8959 ft | 212 kts | 71° |
| 2026-05-08 15:21 | 31.10055 | 121.93186 | 8820 ft | 213 kts | 80° |
| 2026-05-08 15:21 | 31.10010 | 121.94899 | 8679 ft | 213 kts | 103° |
| 2026-05-08 15:21 | 31.09354 | 121.96434 | 8504 ft | 213 kts | 128° |
| 2026-05-08 15:21 | 31.08195 | 121.97500 | 8285 ft | 214 kts | 153° |
| 2026-05-08 15:22 | 31.06802 | 121.98110 | 8054 ft | 214 kts | 161° |
| 2026-05-08 15:22 | 31.05382 | 121.98618 | 7885 ft | 213 kts | 162° |
| 2026-05-08 15:22 | 31.03966 | 121.99124 | 7731 ft | 213 kts | 161° |
| 2026-05-08 15:22 | 31.02554 | 121.99638 | 7571 ft | 212 kts | 161° |
| 2026-05-08 15:23 | 31.01150 | 122.00156 | 7423 ft | 211 kts | 161° |
| 2026-05-08 15:23 | 30.99772 | 122.00667 | 7286 ft | 210 kts | 160° |
| 2026-05-08 15:23 | 30.98378 | 122.01186 | 7158 ft | 210 kts | 160° |
| 2026-05-08 15:23 | 30.96989 | 122.01704 | 7033 ft | 209 kts | 160° |
| 2026-05-08 15:24 | 30.95605 | 122.02221 | 6918 ft | 209 kts | 160° |
| 2026-05-08 15:24 | 30.94224 | 122.02737 | 6786 ft | 208 kts | 160° |
| 2026-05-08 15:24 | 30.92848 | 122.03251 | 6684 ft | 208 kts | 160° |
| 2026-05-08 15:24 | 30.91473 | 122.03765 | 6584 ft | 207 kts | 160° |
| 2026-05-08 15:25 | 30.90103 | 122.04277 | 6480 ft | 206 kts | 160° |
| 2026-05-08 15:25 | 30.88738 | 122.04787 | 6390 ft | 206 kts | 160° |
| 2026-05-08 15:25 | 30.87379 | 122.05295 | 6315 ft | 205 kts | 159° |
| 2026-05-08 15:25 | 30.86021 | 122.05802 | 6248 ft | 205 kts | 160° |
| 2026-05-08 15:26 | 30.84665 | 122.06309 | 6186 ft | 204 kts | 159° |
| 2026-05-08 15:26 | 30.83310 | 122.06810 | 6109 ft | 205 kts | 161° |
| 2026-05-08 15:26 | 30.81901 | 122.07049 | 5997 ft | 207 kts | 180° |
| 2026-05-08 15:26 | 30.80516 | 122.06610 | 5857 ft | 209 kts | 207° |
| 2026-05-08 15:27 | 30.79440 | 122.05472 | 5621 ft | 211 kts | 236° |
| 2026-05-08 15:27 | 30.78835 | 122.03923 | 5394 ft | 211 kts | 251° |
| 2026-05-08 15:27 | 30.78395 | 122.02295 | 5173 ft | 211 kts | 252° |
| 2026-05-08 15:27 | 30.77966 | 122.00663 | 4953 ft | 211 kts | 252° |
| 2026-05-08 15:28 | 30.77553 | 121.99030 | 4727 ft | 210 kts | 256° |
| 2026-05-08 15:28 | 30.77555 | 121.97345 | 4452 ft | 209 kts | 288° |
| 2026-05-08 15:28 | 30.78406 | 121.96065 | 4371 ft | 202 kts | 331° |
| 2026-05-08 15:28 | 30.79652 | 121.95348 | 4375 ft | 202 kts | 341° |
| 2026-05-08 15:29 | 30.80981 | 121.94802 | 4371 ft | 203 kts | 345° |
| 2026-05-08 15:29 | 30.82327 | 121.94306 | 4371 ft | 203 kts | 345° |
| 2026-05-08 15:29 | 30.83672 | 121.93810 | 4368 ft | 203 kts | 345° |
| 2026-05-08 15:29 | 30.85015 | 121.93306 | 4368 ft | 203 kts | 345° |
| 2026-05-08 15:30 | 30.86356 | 121.92799 | 4369 ft | 203 kts | 345° |
| 2026-05-08 15:30 | 30.87699 | 121.92294 | 4372 ft | 203 kts | 345° |
| 2026-05-08 15:30 | 30.89042 | 121.91789 | 4370 ft | 203 kts | 345° |
| 2026-05-08 15:30 | 30.90385 | 121.91283 | 4371 ft | 203 kts | 345° |
| 2026-05-08 15:31 | 30.91728 | 121.90778 | 4341 ft | 203 kts | 345° |
| 2026-05-08 15:31 | 30.93071 | 121.90272 | 4148 ft | 202 kts | 345° |
| 2026-05-08 15:31 | 30.94410 | 121.89767 | 3858 ft | 203 kts | 345° |
| 2026-05-08 15:31 | 30.95757 | 121.89260 | 3560 ft | 204 kts | 345° |
| 2026-05-08 15:32 | 30.97110 | 121.88751 | 3241 ft | 204 kts | 345° |
| 2026-05-08 15:32 | 30.98458 | 121.88242 | 2957 ft | 203 kts | 345° |
| 2026-05-08 15:32 | 30.99793 | 121.87739 | 2697 ft | 201 kts | 345° |
| 2026-05-08 15:32 | 31.01114 | 121.87241 | 2435 ft | 199 kts | 344° |
| 2026-05-08 15:33 | 31.02427 | 121.86746 | 2163 ft | 197 kts | 344° |
| 2026-05-08 15:33 | 31.03728 | 121.86255 | 1898 ft | 196 kts | 343° |
| 2026-05-08 15:33 | 31.05009 | 121.85770 | 1641 ft | 191 kts | 343° |
| 2026-05-08 15:33 | 31.06223 | 121.85312 | 1427 ft | 180 kts | 343° |
| 2026-05-08 15:34 | 31.07393 | 121.84870 | 1163 ft | 168 kts | 344° |
| 2026-05-08 15:34 | 31.08465 | 121.84466 | 939 ft | 155 kts | 344° |
| 2026-05-08 15:34 | 31.09458 | 121.84091 | 736 ft | 145 kts | 343° |
| 2026-05-08 15:34 | 31.10388 | 121.83739 | 545 ft | 136 kts | 342° |
| 2026-05-08 15:35 | 31.11276 | 121.83404 | 370 ft | 134 kts | 342° |
| 2026-05-08 15:35 | 31.12163 | 121.83068 | 197 ft | 134 kts | 342° |
| 2026-05-08 15:35 | 31.13046 | 121.82734 | 46 ft | 130 kts | 342° |
| 2026-05-08 15:35 | 31.13845 | 121.82432 | 28 ft | 106 kts | 342° |
| 2026-05-08 15:36 | 31.14447 | 121.82206 | 29 ft | 63 kts | 342° |
| 2026-05-08 15:36 | 31.14618 | 121.82153 | 27 ft | 23 kts | 347° |
| 2026-05-08 15:36 | 31.14686 | 121.82137 | 26 ft | 3 kts | 349° |